sensor_id;sensor_type;location;lat;lon;timestamp;pressure;altitude;pressure_sealevel;temperature;humidity
64066;BME280;50318;54.760;9.408;2023-02-13T00:00:34;103309.66;;;10.69;62.68
64066;BME280;50318;54.760;9.408;2023-02-13T00:03:01;103305.34;;;10.68;62.63
64066;BME280;50318;54.760;9.408;2023-02-13T00:05:27;103301.78;;;10.60;62.77
64066;BME280;50318;54.760;9.408;2023-02-13T00:07:54;103312.75;;;10.60;63.00
64066;BME280;50318;54.760;9.408;2023-02-13T00:10:20;103316.28;;;10.64;62.49
64066;BME280;50318;54.760;9.408;2023-02-13T00:12:46;103311.59;;;10.61;62.82
64066;BME280;50318;54.760;9.408;2023-02-13T00:15:12;103304.13;;;10.55;62.50
64066;BME280;50318;54.760;9.408;2023-02-13T00:17:38;103318.25;;;10.57;62.99
64066;BME280;50318;54.760;9.408;2023-02-13T00:20:05;103308.44;;;10.56;62.80
64066;BME280;50318;54.760;9.408;2023-02-13T00:22:38;103303.34;;;10.58;62.63
64066;BME280;50318;54.760;9.408;2023-02-13T00:25:06;103306.47;;;10.60;62.70
64066;BME280;50318;54.760;9.408;2023-02-13T00:27:33;103304.13;;;10.62;62.55
64066;BME280;50318;54.760;9.408;2023-02-13T00:30:00;103299.41;;;10.59;62.25
64066;BME280;50318;54.760;9.408;2023-02-13T00:32:26;103301.00;;;10.60;62.02
64066;BME280;50318;54.760;9.408;2023-02-13T00:34:54;103300.22;;;10.59;61.85
64066;BME280;50318;54.760;9.408;2023-02-13T00:37:20;103301.38;;;10.51;61.61
64066;BME280;50318;54.760;9.408;2023-02-13T00:39:47;103307.25;;;10.50;61.88
64066;BME280;50318;54.760;9.408;2023-02-13T00:42:13;103303.34;;;10.54;61.80
64066;BME280;50318;54.760;9.408;2023-02-13T00:44:39;103303.31;;;10.51;61.83
64066;BME280;50318;54.760;9.408;2023-02-13T00:47:05;103306.47;;;10.56;62.13
64066;BME280;50318;54.760;9.408;2023-02-13T00:49:31;103300.22;;;10.59;61.67
64066;BME280;50318;54.760;9.408;2023-02-13T00:52:00;103301.75;;;10.57;61.55
64066;BME280;50318;54.760;9.408;2023-02-13T00:54:27;103292.75;;;10.56;61.46
64066;BME280;50318;54.760;9.408;2023-02-13T00:56:53;103293.13;;;10.51;61.54
64066;BME280;50318;54.760;9.408;2023-02-13T00:59:19;103298.63;;;10.55;61.63
64066;BME280;50318;54.760;9.408;2023-02-13T01:01:46;103309.59;;;10.51;61.25
64066;BME280;50318;54.760;9.408;2023-02-13T01:04:13;103294.66;;;10.41;61.04
64066;BME280;50318;54.760;9.408;2023-02-13T01:06:40;103291.16;;;10.44;61.08
64066;BME280;50318;54.760;9.408;2023-02-13T01:09:07;103290.78;;;10.50;61.38
64066;BME280;50318;54.760;9.408;2023-02-13T01:11:35;103269.53;;;10.39;61.19
64066;BME280;50318;54.760;9.408;2023-02-13T01:14:01;103285.28;;;10.46;61.20
64066;BME280;50318;54.760;9.408;2023-02-13T01:16:28;103274.63;;;10.30;61.21
64066;BME280;50318;54.760;9.408;2023-02-13T01:18:55;103279.72;;;10.35;61.23
64066;BME280;50318;54.760;9.408;2023-02-13T01:21:22;103286.84;;;10.43;60.92
64066;BME280;50318;54.760;9.408;2023-02-13T01:23:48;103290.75;;;10.46;61.15
64066;BME280;50318;54.760;9.408;2023-02-13T01:26:23;103295.47;;;10.45;60.85
64066;BME280;50318;54.760;9.408;2023-02-13T01:28:53;103287.63;;;10.48;60.67
64066;BME280;50318;54.760;9.408;2023-02-13T01:31:20;103278.16;;;10.38;60.78
64066;BME280;50318;54.760;9.408;2023-02-13T01:33:49;103279.72;;;10.39;60.42
64066;BME280;50318;54.760;9.408;2023-02-13T01:36:16;103271.50;;;10.35;60.73
64066;BME280;50318;54.760;9.408;2023-02-13T01:38:42;103273.44;;;10.35;60.86
64066;BME280;50318;54.760;9.408;2023-02-13T01:41:09;103274.69;;;10.41;60.64
64066;BME280;50318;54.760;9.408;2023-02-13T01:46:50;103264.41;;;10.24;60.46
64066;BME280;50318;54.760;9.408;2023-02-13T01:49:22;103265.97;;;10.25;60.38
64066;BME280;50318;54.760;9.408;2023-02-13T01:51:53;103261.28;;;10.29;60.10
64066;BME280;50318;54.760;9.408;2023-02-13T01:54:24;103261.28;;;10.25;60.01
64066;BME280;50318;54.760;9.408;2023-02-13T01:56:54;103263.63;;;10.30;59.97
64066;BME280;50318;54.760;9.408;2023-02-13T01:59:54;103260.13;;;10.33;60.00
64066;BME280;50318;54.760;9.408;2023-02-13T02:02:21;103272.69;;;10.38;60.11
64066;BME280;50318;54.760;9.408;2023-02-13T02:04:48;103261.75;;;10.41;60.33
64066;BME280;50318;54.760;9.408;2023-02-13T02:07:28;103262.53;;;10.42;59.81
64066;BME280;50318;54.760;9.408;2023-02-13T02:10:08;103266.81;;;10.39;60.09
64066;BME280;50318;54.760;9.408;2023-02-13T02:13:04;103262.47;;;10.38;59.87
64066;BME280;50318;54.760;9.408;2023-02-13T02:15:28;103271.09;;;10.37;60.33
64066;BME280;50318;54.760;9.408;2023-02-13T02:17:54;103267.56;;;10.36;59.99
64066;BME280;50318;54.760;9.408;2023-02-13T02:40:43;103260.97;;;10.44;59.85
64066;BME280;50318;54.760;9.408;2023-02-13T02:48:59;103260.97;;;10.52;59.91
64066;BME280;50318;54.760;9.408;2023-02-13T02:56:36;103261.00;;;10.55;59.78
64066;BME280;50318;54.760;9.408;2023-02-13T02:59:12;103247.25;;;10.52;59.90
64066;BME280;50318;54.760;9.408;2023-02-13T03:01:43;103242.53;;;10.49;59.97
64066;BME280;50318;54.760;9.408;2023-02-13T03:04:22;103248.44;;;10.54;59.68
64066;BME280;50318;54.760;9.408;2023-02-13T03:06:59;103249.59;;;10.53;59.94
64066;BME280;50318;54.760;9.408;2023-02-13T03:09:31;103241.00;;;10.55;60.13
64066;BME280;50318;54.760;9.408;2023-02-13T03:12:05;103250.41;;;10.57;60.00
64066;BME280;50318;54.760;9.408;2023-02-13T03:14:32;103252.75;;;10.59;60.08
64066;BME280;50318;54.760;9.408;2023-02-13T03:16:58;103247.25;;;10.55;59.94
64066;BME280;50318;54.760;9.408;2023-02-13T03:29:36;103257.03;;;10.45;60.10
64066;BME280;50318;54.760;9.408;2023-02-13T03:36:06;103248.38;;;10.40;60.34
64066;BME280;50318;54.760;9.408;2023-02-13T03:38:57;103242.09;;;10.39;60.20
64066;BME280;50318;54.760;9.408;2023-02-13T03:41:45;103260.19;;;10.48;60.33
64066;BME280;50318;54.760;9.408;2023-02-13T03:46:57;103257.84;;;10.50;60.41
64066;BME280;50318;54.760;9.408;2023-02-13T03:49:31;103257.06;;;10.49;60.80
64066;BME280;50318;54.760;9.408;2023-02-13T03:52:22;103252.34;;;10.42;60.42
64066;BME280;50318;54.760;9.408;2023-02-13T03:54:54;103252.34;;;10.42;60.14
64066;BME280;50318;54.760;9.408;2023-02-13T03:57:22;103256.66;;;10.43;60.46
64066;BME280;50318;54.760;9.408;2023-02-13T03:59:50;103257.81;;;10.42;60.23
64066;BME280;50318;54.760;9.408;2023-02-13T04:02:24;103248.75;;;10.38;60.62
64066;BME280;50318;54.760;9.408;2023-02-13T04:05:21;103267.25;;;10.45;60.48
64066;BME280;50318;54.760;9.408;2023-02-13T04:07:48;103252.34;;;10.42;60.61
64066;BME280;50318;54.760;9.408;2023-02-13T04:10:16;103262.53;;;10.45;60.39
64066;BME280;50318;54.760;9.408;2023-02-13T04:13:08;103266.84;;;10.43;60.25
64066;BME280;50318;54.760;9.408;2023-02-13T04:15:49;103275.84;;;10.43;60.24
64066;BME280;50318;54.760;9.408;2023-02-13T04:18:26;103272.72;;;10.45;60.70
64066;BME280;50318;54.760;9.408;2023-02-13T04:20:53;103271.16;;;10.48;60.63
64066;BME280;50318;54.760;9.408;2023-02-13T04:23:19;103257.81;;;10.42;60.82
64066;BME280;50318;54.760;9.408;2023-02-13T04:25:51;103273.50;;;10.45;60.52
64066;BME280;50318;54.760;9.408;2023-02-13T04:28:18;103273.06;;;10.40;60.70
64066;BME280;50318;54.760;9.408;2023-02-13T04:30:45;103269.13;;;10.34;61.05
64066;BME280;50318;54.760;9.408;2023-02-13T04:33:11;103266.00;;;10.39;60.75
64066;BME280;50318;54.760;9.408;2023-02-13T04:35:37;103266.06;;;10.42;61.14
64066;BME280;50318;54.760;9.408;2023-02-13T04:38:06;103264.88;;;10.43;60.94
64066;BME280;50318;54.760;9.408;2023-02-13T04:40:33;103271.53;;;10.42;60.82
64066;BME280;50318;54.760;9.408;2023-02-13T04:42:59;103262.88;;;10.40;60.63
64066;BME280;50318;54.760;9.408;2023-02-13T04:45:26;103266.41;;;10.37;60.53
64066;BME280;50318;54.760;9.408;2023-02-13T04:47:53;103276.59;;;10.40;60.71
64066;BME280;50318;54.760;9.408;2023-02-13T04:50:21;103273.47;;;10.38;60.85
64066;BME280;50318;54.760;9.408;2023-02-13T04:52:52;103271.13;;;10.40;60.83
64066;BME280;50318;54.760;9.408;2023-02-13T04:55:18;103269.94;;;10.38;60.90
64066;BME280;50318;54.760;9.408;2023-02-13T04:57:45;103264.09;;;10.43;60.97
64066;BME280;50318;54.760;9.408;2023-02-13T05:00:11;103269.97;;;10.41;60.57
64066;BME280;50318;54.760;9.408;2023-02-13T05:02:38;103265.59;;;10.33;60.82
64066;BME280;50318;54.760;9.408;2023-02-13T05:05:04;103269.94;;;10.38;60.97
64066;BME280;50318;54.760;9.408;2023-02-13T05:07:30;103266.44;;;10.41;60.90
64066;BME280;50318;54.760;9.408;2023-02-13T05:09:57;103266.38;;;10.34;60.78
64066;BME280;50318;54.760;9.408;2023-02-13T05:12:23;103260.91;;;10.30;61.00
64066;BME280;50318;54.760;9.408;2023-02-13T05:14:49;103260.91;;;10.30;61.10
64066;BME280;50318;54.760;9.408;2023-02-13T05:17:15;103271.88;;;10.37;60.85
64066;BME280;50318;54.760;9.408;2023-02-13T05:19:41;103267.19;;;10.34;61.29
64066;BME280;50318;54.760;9.408;2023-02-13T05:22:09;103271.09;;;10.33;61.33
64066;BME280;50318;54.760;9.408;2023-02-13T05:24:36;103269.91;;;10.31;61.24
64066;BME280;50318;54.760;9.408;2023-02-13T05:27:02;103279.00;;;10.42;61.36
64066;BME280;50318;54.760;9.408;2023-02-13T05:29:28;103275.41;;;10.38;61.45
64066;BME280;50318;54.760;9.408;2023-02-13T05:31:56;103278.94;;;10.38;60.97
64066;BME280;50318;54.760;9.408;2023-02-13T05:34:25;103278.94;;;10.38;61.76
64066;BME280;50318;54.760;9.408;2023-02-13T05:36:52;103284.81;;;10.37;61.83
64066;BME280;50318;54.760;9.408;2023-02-13T05:39:19;103282.88;;;10.37;61.22
64066;BME280;50318;54.760;9.408;2023-02-13T05:41:46;103284.81;;;10.37;61.04
64066;BME280;50318;54.760;9.408;2023-02-13T05:44:13;103295.00;;;10.36;61.37
64066;BME280;50318;54.760;9.408;2023-02-13T05:46:41;103284.41;;;10.31;61.54
64066;BME280;50318;54.760;9.408;2023-02-13T05:49:09;103287.56;;;10.37;61.37
64066;BME280;50318;54.760;9.408;2023-02-13T05:51:36;103286.38;;;10.34;61.54
64066;BME280;50318;54.760;9.408;2023-02-13T05:54:02;103284.41;;;10.31;61.23
64066;BME280;50318;54.760;9.408;2023-02-13T05:56:28;103293.44;;;10.39;61.07
64066;BME280;50318;54.760;9.408;2023-02-13T05:58:55;103292.66;;;10.35;61.30
64066;BME280;50318;54.760;9.408;2023-02-13T06:01:22;103300.88;;;10.35;61.38
64066;BME280;50318;54.760;9.408;2023-02-13T06:03:48;103282.06;;;10.30;61.69
64066;BME280;50318;54.760;9.408;2023-02-13T06:06:15;103290.69;;;10.28;61.43
64066;BME280;50318;54.760;9.408;2023-02-13T06:08:42;103285.56;;;10.27;61.68
64066;BME280;50318;54.760;9.408;2023-02-13T06:11:09;103298.53;;;10.33;61.56
64066;BME280;50318;54.760;9.408;2023-02-13T06:13:35;103284.41;;;10.31;61.68
64066;BME280;50318;54.760;9.408;2023-02-13T06:16:01;103298.16;;;10.35;61.58
64066;BME280;50318;54.760;9.408;2023-02-13T06:18:27;103296.97;;;10.36;61.86
64066;BME280;50318;54.760;9.408;2023-02-13T06:20:54;103285.97;;;10.32;61.53
64066;BME280;50318;54.760;9.408;2023-02-13T06:23:20;103278.91;;;10.28;61.46
64066;BME280;50318;54.760;9.408;2023-02-13T06:25:46;103298.94;;;10.35;61.44
64066;BME280;50318;54.760;9.408;2023-02-13T06:28:12;103298.53;;;10.37;61.57
64066;BME280;50318;54.760;9.408;2023-02-13T06:30:39;103292.28;;;10.36;61.74
64066;BME280;50318;54.760;9.408;2023-02-13T06:33:05;103295.00;;;10.36;61.61
64066;BME280;50318;54.760;9.408;2023-02-13T06:35:31;103302.84;;;10.34;61.33
64066;BME280;50318;54.760;9.408;2023-02-13T06:38:00;103296.19;;;10.32;61.44
64066;BME280;50318;54.760;9.408;2023-02-13T06:40:26;103295.38;;;10.28;61.20
64066;BME280;50318;54.760;9.408;2023-02-13T06:42:52;103296.56;;;10.30;61.39
64066;BME280;50318;54.760;9.408;2023-02-13T06:45:18;103299.72;;;10.36;61.60
64066;BME280;50318;54.760;9.408;2023-02-13T06:47:46;103302.44;;;10.32;61.41
64066;BME280;50318;54.760;9.408;2023-02-13T06:50:14;103308.31;;;10.27;61.10
64066;BME280;50318;54.760;9.408;2023-02-13T06:52:49;103307.50;;;10.23;61.59
64066;BME280;50318;54.760;9.408;2023-02-13T06:55:17;103313.78;;;10.27;61.92
64066;BME280;50318;54.760;9.408;2023-02-13T06:57:43;103320.47;;;10.33;61.83
64066;BME280;50318;54.760;9.408;2023-02-13T07:00:11;103306.38;;;10.31;61.76
64066;BME280;50318;54.760;9.408;2023-02-13T07:02:39;103319.69;;;10.33;61.36
64066;BME280;50318;54.760;9.408;2023-02-13T07:05:06;103314.97;;;10.30;61.49
64066;BME280;50318;54.760;9.408;2023-02-13T07:07:34;103316.94;;;10.29;61.40
64066;BME280;50318;54.760;9.408;2023-02-13T07:10:01;103332.25;;;10.34;61.57
64066;BME280;50318;54.760;9.408;2023-02-13T07:12:27;103329.91;;;10.36;61.63
64066;BME280;50318;54.760;9.408;2023-02-13T07:14:53;103320.47;;;10.33;61.51
64066;BME280;50318;54.760;9.408;2023-02-13T07:17:19;103325.19;;;10.36;61.34
64066;BME280;50318;54.760;9.408;2023-02-13T07:19:46;103329.91;;;10.36;61.55
64066;BME280;50318;54.760;9.408;2023-02-13T07:22:13;103327.94;;;10.33;61.02
64066;BME280;50318;54.760;9.408;2023-02-13T07:24:39;103333.44;;;10.40;61.22
64066;BME280;50318;54.760;9.408;2023-02-13T07:27:05;103329.50;;;10.30;61.83
64066;BME280;50318;54.760;9.408;2023-02-13T07:29:32;103336.16;;;10.29;61.33
64066;BME280;50318;54.760;9.408;2023-02-13T07:31:58;103323.59;;;10.28;61.20
64066;BME280;50318;54.760;9.408;2023-02-13T07:34:24;103340.88;;;10.39;61.44
64066;BME280;50318;54.760;9.408;2023-02-13T07:36:50;103328.28;;;10.24;61.37
64066;BME280;50318;54.760;9.408;2023-02-13T07:39:17;103345.19;;;10.40;61.26
64066;BME280;50318;54.760;9.408;2023-02-13T07:41:43;103329.13;;;10.35;61.52
64066;BME280;50318;54.760;9.408;2023-02-13T07:44:09;103345.56;;;10.35;61.41
64066;BME280;50318;54.760;9.408;2023-02-13T07:46:36;103343.22;;;10.37;61.71
64066;BME280;50318;54.760;9.408;2023-02-13T07:49:02;103340.53;;;10.41;61.86
64066;BME280;50318;54.760;9.408;2023-02-13T07:51:28;103339.38;;;10.42;61.34
64066;BME280;50318;54.760;9.408;2023-02-13T07:53:55;103332.69;;;10.43;61.68
64066;BME280;50318;54.760;9.408;2023-02-13T07:56:21;103340.53;;;10.44;61.30
64066;BME280;50318;54.760;9.408;2023-02-13T07:58:47;103335.06;;;10.48;61.54
64066;BME280;50318;54.760;9.408;2023-02-13T08:01:15;103343.34;;;10.59;61.29
64066;BME280;50318;54.760;9.408;2023-02-13T08:03:41;103340.59;;;10.59;61.42
64066;BME280;50318;54.760;9.408;2023-02-13T08:06:08;103353.16;;;10.60;61.25
64066;BME280;50318;54.760;9.408;2023-02-13T08:08:35;103349.66;;;10.66;61.46
64066;BME280;50318;54.760;9.408;2023-02-13T08:11:11;103353.59;;;10.69;61.54
64066;BME280;50318;54.760;9.408;2023-02-13T08:13:44;103344.97;;;10.67;61.45
64066;BME280;50318;54.760;9.408;2023-02-13T08:16:10;103360.69;;;10.81;61.31
64066;BME280;50318;54.760;9.408;2023-02-13T08:18:36;103357.94;;;10.81;60.88
64066;BME280;50318;54.760;9.408;2023-02-13T08:21:03;103357.94;;;10.81;60.42
64066;BME280;50318;54.760;9.408;2023-02-13T08:23:29;103353.63;;;10.76;60.40
64066;BME280;50318;54.760;9.408;2023-02-13T08:25:59;103364.59;;;10.80;60.32
64066;BME280;50318;54.760;9.408;2023-02-13T08:28:25;103360.69;;;10.77;60.53
64066;BME280;50318;54.760;9.408;2023-02-13T08:30:51;103359.91;;;10.84;60.29
64066;BME280;50318;54.760;9.408;2023-02-13T08:33:17;103354.41;;;10.80;60.37
64066;BME280;50318;54.760;9.408;2023-02-13T08:35:44;103366.19;;;10.84;60.61
64066;BME280;50318;54.760;9.408;2023-02-13T08:38:10;103350.09;;;10.83;60.56
64066;BME280;50318;54.760;9.408;2023-02-13T08:40:36;103367.81;;;10.92;60.75
64066;BME280;50318;54.760;9.408;2023-02-13T08:43:05;103355.25;;;10.95;60.40
64066;BME280;50318;54.760;9.408;2023-02-13T08:45:32;103361.16;;;11.00;60.37
64066;BME280;50318;54.760;9.408;2023-02-13T08:47:59;103357.63;;;11.03;60.57
64066;BME280;50318;54.760;9.408;2023-02-13T08:50:26;103351.34;;;11.03;60.40
64066;BME280;50318;54.760;9.408;2023-02-13T08:52:53;103352.13;;;11.03;60.27
64066;BME280;50318;54.760;9.408;2023-02-13T08:55:19;103363.94;;;11.15;60.20
64066;BME280;50318;54.760;9.408;2023-02-13T08:57:46;103354.13;;;11.14;59.99
64066;BME280;50318;54.760;9.408;2023-02-13T09:00:12;103362.00;;;11.26;59.96
64066;BME280;50318;54.760;9.408;2023-02-13T09:02:39;103360.44;;;11.32;59.77
64066;BME280;50318;54.760;9.408;2023-02-13T09:05:08;103354.53;;;11.33;59.25
64066;BME280;50318;54.760;9.408;2023-02-13T09:07:35;103359.63;;;11.31;58.80
64066;BME280;50318;54.760;9.408;2023-02-13T09:10:01;103355.34;;;11.37;59.37
64066;BME280;50318;54.760;9.408;2023-02-13T09:12:29;103358.09;;;11.41;58.75
64066;BME280;50318;54.760;9.408;2023-02-13T09:14:57;103352.22;;;11.43;58.57
64066;BME280;50318;54.760;9.408;2023-02-13T09:17:26;103356.53;;;11.47;58.80
64066;BME280;50318;54.760;9.408;2023-02-13T09:19:52;103356.91;;;11.56;58.46
64066;BME280;50318;54.760;9.408;2023-02-13T09:22:19;103353.81;;;11.61;58.38
64066;BME280;50318;54.760;9.408;2023-02-13T09:24:45;103345.16;;;11.63;58.70
64066;BME280;50318;54.760;9.408;2023-02-13T09:27:11;103361.66;;;11.66;58.27
64066;BME280;50318;54.760;9.408;2023-02-13T09:29:37;103355.34;;;11.69;57.88
64066;BME280;50318;54.760;9.408;2023-02-13T09:32:04;103362.03;;;11.76;57.41
64066;BME280;50318;54.760;9.408;2023-02-13T09:34:30;103360.06;;;11.73;57.68
64066;BME280;50318;54.760;9.408;2023-02-13T09:36:56;103359.66;;;11.78;57.32
64066;BME280;50318;54.760;9.408;2023-02-13T09:39:23;103356.97;;;11.88;57.15
64066;BME280;50318;54.760;9.408;2023-02-13T09:41:51;103360.09;;;11.97;57.20
64066;BME280;50318;54.760;9.408;2023-02-13T09:44:38;103360.88;;;12.09;56.78
64066;BME280;50318;54.760;9.408;2023-02-13T09:49:42;103366.75;;;12.14;56.12
64066;BME280;50318;54.760;9.408;2023-02-13T09:52:09;103363.59;;;12.16;56.33
64066;BME280;50318;54.760;9.408;2023-02-13T09:54:35;103357.31;;;12.15;55.92
64066;BME280;50318;54.760;9.408;2023-02-13T10:04:51;103374.91;;;12.46;55.50
64066;BME280;50318;54.760;9.408;2023-02-13T10:15:55;103363.91;;;12.46;54.38
64066;BME280;50318;54.760;9.408;2023-02-13T10:21:13;103367.81;;;12.49;54.20
64066;BME280;50318;54.760;9.408;2023-02-13T10:23:41;103369.41;;;12.57;54.22
64066;BME280;50318;54.760;9.408;2023-02-13T10:26:19;103367.44;;;12.50;53.09
64066;BME280;50318;54.760;9.408;2023-02-13T10:29:01;103360.41;;;12.39;53.60
64066;BME280;50318;54.760;9.408;2023-02-13T10:31:29;103349.78;;;12.41;53.06
64066;BME280;50318;54.760;9.408;2023-02-13T10:34:01;103366.25;;;12.48;52.74
64066;BME280;50318;54.760;9.408;2023-02-13T10:36:30;103363.53;;;12.44;52.42
64066;BME280;50318;54.760;9.408;2023-02-13T10:39:20;103359.19;;;12.47;53.07
64066;BME280;50318;54.760;9.408;2023-02-13T10:48:24;103356.75;;;12.67;52.76
64066;BME280;50318;54.760;9.408;2023-02-13T10:53:57;103352.84;;;12.64;51.85
64066;BME280;50318;54.760;9.408;2023-02-13T10:59:31;103353.25;;;12.59;51.85
64066;BME280;50318;54.760;9.408;2023-02-13T11:02:22;103349.72;;;12.51;51.80
64066;BME280;50318;54.760;9.408;2023-02-13T11:04:52;103356.03;;;12.55;51.62
64066;BME280;50318;54.760;9.408;2023-02-13T11:07:23;103352.03;;;12.67;51.75
64066;BME280;50318;54.760;9.408;2023-02-13T11:09:55;103354.41;;;12.65;51.65
64066;BME280;50318;54.760;9.408;2023-02-13T11:12:31;103349.69;;;12.62;51.35
64066;BME280;50318;54.760;9.408;2023-02-13T11:15:00;103345.75;;;12.63;50.71
64066;BME280;50318;54.760;9.408;2023-02-13T11:17:33;103339.91;;;12.47;50.91
64066;BME280;50318;54.760;9.408;2023-02-13T11:20:03;103359.16;;;12.50;50.66
64066;BME280;50318;54.760;9.408;2023-02-13T11:22:36;103365.88;;;12.42;50.28
64066;BME280;50318;54.760;9.408;2023-02-13T11:25:06;103363.16;;;12.39;50.03
64066;BME280;50318;54.760;9.408;2023-02-13T11:27:42;103357.66;;;12.39;50.46
64066;BME280;50318;54.760;9.408;2023-02-13T11:33:17;103356.50;;;12.25;50.56
64066;BME280;50318;54.760;9.408;2023-02-13T11:35:44;103350.63;;;12.16;51.15
64066;BME280;50318;54.760;9.408;2023-02-13T11:40:41;103343.50;;;12.29;51.52
64066;BME280;50318;54.760;9.408;2023-02-13T11:43:27;103336.09;;;12.12;50.97
64066;BME280;50318;54.760;9.408;2023-02-13T11:48:31;103329.41;;;12.06;51.50
64066;BME280;50318;54.760;9.408;2023-02-13T11:50:58;103336.88;;;12.02;51.92
64066;BME280;50318;54.760;9.408;2023-02-13T11:53:35;103334.53;;;12.11;51.90
64066;BME280;50318;54.760;9.408;2023-02-13T11:56:14;103341.97;;;12.21;51.79
64066;BME280;50318;54.760;9.408;2023-02-13T11:58:41;103331.38;;;12.16;51.74
64066;BME280;50318;54.760;9.408;2023-02-13T12:04:13;103319.19;;;12.10;51.42
64066;BME280;50318;54.760;9.408;2023-02-13T12:06:40;103319.97;;;12.14;51.94
64066;BME280;50318;54.760;9.408;2023-02-13T12:09:12;103316.84;;;12.12;51.79
64066;BME280;50318;54.760;9.408;2023-02-13T12:11:44;103319.59;;;12.12;51.61
64066;BME280;50318;54.760;9.408;2023-02-13T12:14:17;103319.97;;;12.14;52.00
64066;BME280;50318;54.760;9.408;2023-02-13T12:16:51;103318.38;;;12.20;52.18
64066;BME280;50318;54.760;9.408;2023-02-13T12:19:24;103308.19;;;12.14;52.38
64066;BME280;50318;54.760;9.408;2023-02-13T12:25:22;103302.69;;;12.03;52.16
64066;BME280;50318;54.760;9.408;2023-02-13T12:33:11;103308.13;;;12.24;51.98
64066;BME280;50318;54.760;9.408;2023-02-13T12:36:01;103305.78;;;12.19;52.12
64066;BME280;50318;54.760;9.408;2023-02-13T12:41:20;103315.19;;;12.36;52.03
64066;BME280;50318;54.760;9.408;2023-02-13T12:59:29;103323.13;;;12.02;52.35
64066;BME280;50318;54.760;9.408;2023-02-13T13:12:47;103321.97;;;11.67;53.13
64066;BME280;50318;54.760;9.408;2023-02-13T13:15:30;103316.47;;;11.75;52.60
64066;BME280;50318;54.760;9.408;2023-02-13T13:28:42;103318.03;;;11.97;52.89
64066;BME280;50318;54.760;9.408;2023-02-13T13:31:11;103319.56;;;12.05;52.93
64066;BME280;50318;54.760;9.408;2023-02-13T13:33:45;103329.03;;;12.08;52.77
64066;BME280;50318;54.760;9.408;2023-02-13T13:42:06;103321.19;;;11.92;53.11
64066;BME280;50318;54.760;9.408;2023-02-13T13:54:43;103321.56;;;11.94;52.03
64066;BME280;50318;54.760;9.408;2023-02-13T13:57:11;103331.03;;;11.89;52.37
64066;BME280;50318;54.760;9.408;2023-02-13T14:08:03;103316.84;;;11.98;53.37
64066;BME280;50318;54.760;9.408;2023-02-13T14:13:37;103312.94;;;11.95;53.28
64066;BME280;50318;54.760;9.408;2023-02-13T14:16:10;103325.09;;;11.98;53.23
64066;BME280;50318;54.760;9.408;2023-02-13T14:18:44;103305.09;;;11.90;53.41
64066;BME280;50318;54.760;9.408;2023-02-13T14:21:10;103305.88;;;11.91;53.31
64066;BME280;50318;54.760;9.408;2023-02-13T14:23:45;103312.94;;;11.95;53.81
64066;BME280;50318;54.760;9.408;2023-02-13T14:31:33;103308.22;;;11.92;53.53
64066;BME280;50318;54.760;9.408;2023-02-13T14:36:37;103298.81;;;11.86;54.04
64066;BME280;50318;54.760;9.408;2023-02-13T14:39:21;103298.78;;;11.83;53.80
64066;BME280;50318;54.760;9.408;2023-02-13T14:46:47;103294.88;;;11.84;54.16
64066;BME280;50318;54.760;9.408;2023-02-13T14:49:31;103293.28;;;11.83;54.12
64066;BME280;50318;54.760;9.408;2023-02-13T14:52:01;103285.41;;;11.78;54.07
64066;BME280;50318;54.760;9.408;2023-02-13T14:54:35;103287.81;;;11.61;53.98
64066;BME280;50318;54.760;9.408;2023-02-13T14:57:22;103294.09;;;11.65;53.98
64066;BME280;50318;54.760;9.408;2023-02-13T14:59:57;103290.56;;;11.65;54.17
64066;BME280;50318;54.760;9.408;2023-02-13T15:02:27;103286.22;;;11.53;54.17
64066;BME280;50318;54.760;9.408;2023-02-13T15:04:58;103293.69;;;11.56;54.33
64066;BME280;50318;54.760;9.408;2023-02-13T15:07:30;103287.78;;;11.58;54.22
64066;BME280;50318;54.760;9.408;2023-02-13T15:10:01;103283.50;;;11.60;54.46
64066;BME280;50318;54.760;9.408;2023-02-13T15:12:36;103290.94;;;11.53;53.94
64066;BME280;50318;54.760;9.408;2023-02-13T15:15:22;103294.09;;;11.48;54.20
64066;BME280;50318;54.760;9.408;2023-02-13T15:17:49;103287.78;;;11.33;54.34
64066;BME280;50318;54.760;9.408;2023-02-13T15:20:31;103281.50;;;11.32;54.54
64066;BME280;50318;54.760;9.408;2023-02-13T15:22:58;103271.31;;;11.29;54.76
64066;BME280;50318;54.760;9.408;2023-02-13T15:25:39;103281.53;;;11.40;55.08
64066;BME280;50318;54.760;9.408;2023-02-13T15:28:07;103283.88;;;11.41;54.90
64066;BME280;50318;54.760;9.408;2023-02-13T15:33:58;103286.22;;;11.35;55.16
64066;BME280;50318;54.760;9.408;2023-02-13T15:38:45;103281.53;;;11.22;54.39
64066;BME280;50318;54.760;9.408;2023-02-13T15:41:17;103283.88;;;11.13;55.25
64066;BME280;50318;54.760;9.408;2023-02-13T15:43:50;103281.50;;;11.00;55.11
64066;BME280;50318;54.760;9.408;2023-02-13T15:46:34;103280.28;;;10.87;54.86
64066;BME280;50318;54.760;9.408;2023-02-13T15:51:32;103283.03;;;10.87;55.48
64066;BME280;50318;54.760;9.408;2023-02-13T15:54:01;103285.03;;;10.90;55.42
64066;BME280;50318;54.760;9.408;2023-02-13T15:56:28;103282.63;;;10.78;55.62
64066;BME280;50318;54.760;9.408;2023-02-13T15:58:55;103277.94;;;10.86;55.84
64066;BME280;50318;54.760;9.408;2023-02-13T16:01:23;103283.06;;;10.94;55.90
64066;BME280;50318;54.760;9.408;2023-02-13T16:04:01;103273.25;;;10.93;55.68
64066;BME280;50318;54.760;9.408;2023-02-13T16:06:29;103282.28;;;10.90;55.83
64066;BME280;50318;54.760;9.408;2023-02-13T16:08:57;103284.59;;;10.81;56.01
64066;BME280;50318;54.760;9.408;2023-02-13T16:19:51;103279.47;;;10.80;55.94
64066;BME280;50318;54.760;9.408;2023-02-13T16:32:48;103268.50;;;10.80;56.40
64066;BME280;50318;54.760;9.408;2023-02-13T16:37:53;103277.53;;;10.84;56.87